Archival Weather

Fayette Rgnl Air Cntr Arp

Fayette Rgnl Air Cntr Arp, Texas (K3T5)

Report from: Thursday, September 22, 2022 2:15 AM CDT
Current time: Friday, February 3, 2023 10:51 PM CST

Current weather
Weather history
Weather forecast

Temperature22.6°C (72.7°F)
Dew point21.3°C (70.3°F)
Winds Calm
Visibility10 mi. (16.1 km)
Clouds Sky clear
Altimeter29.97 in.Hg (1015 mB)
Relative humidity92 %
Density altitude1,170 ft. (357 m)
Remarks Fully automated report
Automated weather observing station with precipitation discriminator
Flight conditions Visual Meteorological Conditions
Raw dataK3T5 220715Z AUTO 00000KT 10SM CLR 23/21 A2997 RMK AO2 T02260213
An unhandled exception has occurred. See browser dev tools for details. Reload 🗙